Time;durP1;ratioP1;P1;durP2;ratioP2;P2;SDS_P1;SDS_P2;PMS_P1;PMS_P2;Temp;Humidity;BMP_temperature;BMP_pressure;BME280_temperature;BME280_humidity;BME280_pressure;Samples;Min_cycle;Max_cycle;Signal;HPM_P1;HPM_P2
2022/10/20 00:01:26;;;;;;;1.17;1.15;;;;;;;9.31;59.20;93857.72;5132590;27;20023;-34
2022/10/20 00:03:52;;;;;;;17.55;4.35;;;;;;;9.31;59.18;93852.19;5132784;27;20098;-34
2022/10/20 00:06:20;;;;;;;1.30;1.30;;;;;;;9.03;60.11;93852.72;5132918;27;20023;-34
2022/10/20 00:08:46;;;;;;;3.60;2.95;;;;;;;8.78;61.01;93856.94;5132810;27;20147;-34
2022/10/20 00:11:13;;;;;;;2.92;2.72;;;;;;;8.83;61.34;93855.34;5132788;27;20481;-34
2022/10/20 00:13:40;;;;;;;3.63;3.15;;;;;;;9.09;60.33;93855.38;5132698;27;20021;-34
2022/10/20 00:16:06;;;;;;;4.07;3.75;;;;;;;9.03;60.47;93860.97;5132321;27;20030;-34
2022/10/20 00:18:32;;;;;;;4.32;2.53;;;;;;;8.91;61.45;93851.44;5132123;27;20019;-34
2022/10/20 00:20:57;;;;;;;10.02;3.72;;;;;;;8.87;61.49;93861.28;5132332;27;20030;-34
2022/10/20 00:23:23;;;;;;;2.70;2.45;;;;;;;9.07;61.54;93855.88;5132112;27;20019;-34
2022/10/20 00:25:48;;;;;;;5.00;4.50;;;;;;;8.98;61.35;93861.84;5131904;27;20015;-33
2022/10/20 00:28:14;;;;;;;5.65;2.15;;;;;;;9.10;60.74;93854.84;5130131;27;20027;-34
2022/10/20 00:30:40;;;;;;;1.83;1.73;;;;;;;9.29;59.92;93838.19;5132021;27;20474;-34
2022/10/20 00:33:05;;;;;;;5.93;2.83;;;;;;;9.40;59.72;93834.50;5132351;27;20022;-34
2022/10/20 00:35:32;;;;;;;3.22;2.20;;;;;;;9.31;60.01;93832.16;5132081;27;20023;-34
2022/10/20 00:37:57;;;;;;;1.13;1.13;;;;;;;9.10;60.71;93830.03;5131960;27;20155;-34
2022/10/20 00:40:23;;;;;;;2.55;2.35;;;;;;;9.01;61.14;93837.97;5132207;27;20044;-34
2022/10/20 00:42:48;;;;;;;2.03;1.90;;;;;;;8.88;61.67;93844.22;5131956;27;20116;-34
2022/10/20 00:45:16;;;;;;;4.32;3.97;;;;;;;8.90;61.54;93838.22;5132080;27;20099;-34
2022/10/20 00:47:45;;;;;;;3.85;2.97;;;;;;;9.05;61.67;93839.16;5131805;27;20083;-34
2022/10/20 00:50:17;;;;;;;2.25;2.15;;;;;;;8.92;61.86;93833.63;5131686;27;20027;-34
2022/10/20 00:52:43;;;;;;;4.65;3.78;;;;;;;8.99;61.63;93824.00;5131742;27;20486;-34
2022/10/20 00:55:09;;;;;;;1.80;1.70;;;;;;;8.91;62.11;93825.91;5113741;27;20551;-34
2022/10/20 00:57:36;;;;;;;1.98;1.88;;;;;;;8.72;62.21;93828.00;5113202;27;20071;-34
2022/10/20 01:00:02;;;;;;;2.05;1.67;;;;;;;8.73;62.67;93844.00;5131662;27;20022;-34
2022/10/20 01:02:27;;;;;;;1.95;1.80;;;;;;;8.56;63.04;93834.53;5131589;27;20019;-34
2022/10/20 01:04:53;;;;;;;1.27;1.27;;;;;;;8.66;62.75;93817.13;5113465;27;20039;-34
2022/10/20 01:07:18;;;;;;;1.77;1.67;;;;;;;8.81;62.43;93831.09;5131452;27;20054;-34
2022/10/20 01:09:44;;;;;;;4.50;3.47;;;;;;;8.64;63.00;93832.66;5131416;27;20076;-34
2022/10/20 01:12:28;;;;;;;0.73;0.73;;;;;;;8.70;63.04;93825.81;5113321;27;20027;-34
2022/10/20 01:15:16;;;;;;;2.78;2.53;;;;;;;8.63;63.81;93820.91;5131635;27;20475;-34
2022/10/20 01:18:10;;;;;;;1.80;1.63;;;;;;;8.74;63.03;93828.97;5083450;27;20039;-34
2022/10/20 01:21:03;;;;;;;1.15;1.13;;;;;;;8.79;62.99;93827.41;5131358;27;20058;-34
2022/10/20 01:23:56;;;;;;;0.77;0.77;;;;;;;8.93;62.38;93826.88;5131286;28;20022;-34
2022/10/20 01:26:40;;;;;;;1.67;1.58;;;;;;;8.79;62.62;93822.59;5130839;27;20031;-34
2022/10/20 01:29:12;;;;;;;3.50;2.58;;;;;;;8.54;63.39;93823.31;5131152;28;20027;-34
2022/10/20 01:32:02;;;;;;;2.40;2.22;;;;;;;8.47;64.04;93832.94;5131462;28;20049;-34
2022/10/20 01:34:30;;;;;;;3.25;1.85;;;;;;;8.36;64.10;93822.09;5131493;28;20114;-34
2022/10/20 01:37:11;;;;;;;1.45;1.35;;;;;;;8.20;64.52;93829.34;5113167;28;20035;-34
2022/10/20 01:39:57;;;;;;;0.52;0.52;;;;;;;8.20;64.28;93826.59;5113474;27;20031;-33
2022/10/20 01:42:24;;;;;;;2.05;1.95;;;;;;;8.20;63.71;93825.84;5116871;27;20038;-34
2022/10/20 01:44:53;;;;;;;1.30;1.23;;;;;;;8.15;63.99;93827.44;5135308;27;20023;-33
2022/10/20 01:47:19;;;;;;;11.80;2.80;;;;;;;8.19;63.58;93827.13;5117031;27;20034;-34
2022/10/20 01:49:47;;;;;;;2.95;2.83;;;;;;;8.31;63.54;93833.97;5117154;27;20438;-34
2022/10/20 01:52:13;;;;;;;3.92;2.15;;;;;;;8.03;63.87;93830.88;5117159;27;20483;-34
2022/10/20 01:54:39;;;;;;;4.38;4.07;;;;;;;7.70;65.02;93834.09;5135240;27;20084;-34
2022/10/20 01:57:32;;;;;;;2.60;2.40;;;;;;;7.82;64.51;93838.91;5135058;27;20072;-34
2022/10/20 02:00:09;;;;;;;1.85;1.63;;;;;;;7.97;64.18;93830.22;5135129;27;20031;-34
2022/10/20 02:02:50;;;;;;;3.17;2.13;;;;;;;7.72;64.77;93845.31;5135191;27;20046;-34
2022/10/20 02:05:33;;;;;;;2.05;1.95;;;;;;;7.57;65.45;93849.25;5134848;27;20486;-34
2022/10/20 02:08:13;;;;;;;0.55;0.55;;;;;;;7.33;66.05;93849.31;5135021;27;20031;-33
2022/10/20 02:10:50;;;;;;;2.05;1.92;;;;;;;7.29;65.28;93848.13;5135277;27;20587;-34
2022/10/20 02:13:17;;;;;;;3.72;3.38;;;;;;;7.28;65.17;93854.84;5134652;27;20039;-33
2022/10/20 02:15:50;;;;;;;0.40;0.40;;;;;;;7.24;65.31;93859.91;5133616;27;20023;-34
2022/10/20 02:18:20;;;;;;;2.03;1.92;;;;;;;7.40;64.68;93854.22;5133876;27;20049;-33
2022/10/20 02:20:51;;;;;;;3.13;2.42;;;;;;;7.40;64.80;93851.47;5134784;27;20026;-33
2022/10/20 02:23:16;;;;;;;1.15;1.13;;;;;;;7.16;64.97;93859.75;5133425;27;20027;-33
2022/10/20 02:25:42;;;;;;;2.50;2.40;;;;;;;7.03;65.16;93864.38;5134228;27;20080;-33
2022/10/20 02:28:12;;;;;;;1.20;1.20;;;;;;;7.17;64.97;93872.22;5134837;27;20027;-33
2022/10/20 02:30:39;;;;;;;1.70;1.60;;;;;;;7.13;65.44;93868.25;5116214;27;20114;-33
2022/10/20 02:33:05;;;;;;;4.03;3.63;;;;;;;7.18;65.20;93865.47;5116421;27;20109;-33
2022/10/20 02:35:31;;;;;;;3.13;2.58;;;;;;;7.25;66.06;93859.41;5116111;27;20082;-33
2022/10/20 02:37:57;;;;;;;3.35;3.10;;;;;;;7.21;66.02;93864.41;5134606;27;20027;-34
2022/10/20 02:40:23;;;;;;;1.55;1.45;;;;;;;6.98;66.12;93859.69;5134567;27;20406;-34
2022/10/20 02:42:48;;;;;;;0.77;0.77;;;;;;;7.05;65.36;93868.13;5134123;27;20047;-34
2022/10/20 02:45:14;;;;;;;4.50;3.60;;;;;;;6.77;65.97;93870.41;5134390;27;20047;-33
2022/10/20 02:47:40;;;;;;;2.58;2.35;;;;;;;6.88;65.58;93876.53;5134500;27;20055;-34
2022/10/20 02:50:07;;;;;;;4.85;4.15;;;;;;;6.80;65.73;93869.34;5134358;27;20451;-33
2022/10/20 02:52:33;;;;;;;5.80;3.38;;;;;;;6.80;66.46;93880.31;5133564;27;20474;-33
2022/10/20 02:54:59;;;;;;;3.80;3.45;;;;;;;6.71;65.60;93889.63;5134332;27;20019;-33
2022/10/20 02:57:25;;;;;;;11.20;7.35;;;;;;;6.74;66.11;93883.13;5134159;27;20038;-33
2022/10/20 02:59:50;;;;;;;5.68;5.15;;;;;;;6.69;66.13;93885.94;5133904;27;20502;-33
2022/10/20 03:02:16;;;;;;;5.18;4.78;;;;;;;6.77;66.40;93884.13;5133865;27;20100;-33
2022/10/20 03:04:41;;;;;;;3.90;3.70;;;;;;;6.88;66.12;93882.03;5133733;27;20019;-33
2022/10/20 03:07:06;;;;;;;3.20;3.00;;;;;;;6.91;66.41;93887.72;5134006;27;20027;-33
2022/10/20 03:09:32;;;;;;;8.20;2.65;;;;;;;6.86;66.87;93884.50;5133621;27;20046;-33
2022/10/20 03:11:57;;;;;;;4.07;3.78;;;;;;;6.91;66.87;93888.47;5134018;27;20023;-33
2022/10/20 03:14:23;;;;;;;5.57;5.10;;;;;;;6.89;66.37;93875.25;5133629;27;20027;-33
2022/10/20 03:16:48;;;;;;;4.03;3.72;;;;;;;6.90;66.82;93886.97;5133947;27;20019;-34
2022/10/20 03:19:14;;;;;;;3.78;3.47;;;;;;;7.00;65.86;93888.13;5133782;27;20400;-33
2022/10/20 03:21:39;;;;;;;5.43;4.55;;;;;;;6.82;66.02;93886.06;5133490;27;20053;-33
2022/10/20 03:24:05;;;;;;;1.63;1.58;;;;;;;6.59;66.36;93884.78;5133560;27;20034;-34
2022/10/20 03:26:30;;;;;;;1.85;1.80;;;;;;;6.43;66.54;93897.38;5133366;27;20030;-33
2022/10/20 03:28:56;;;;;;;3.78;3.58;;;;;;;6.55;65.94;93892.53;5133271;27;20027;-33
2022/10/20 03:31:21;;;;;;;5.25;4.75;;;;;;;6.53;66.27;93890.31;5133290;27;20035;-33
2022/10/20 03:33:46;;;;;;;2.42;2.22;;;;;;;6.39;66.95;93896.19;5133329;27;20023;-33
2022/10/20 03:36:12;;;;;;;5.50;5.03;;;;;;;6.23;66.57;93894.28;5133545;27;20402;-33
2022/10/20 03:38:41;;;;;;;5.05;4.70;;;;;;;6.13;66.82;93891.13;5133537;27;20483;-34
2022/10/20 03:41:06;;;;;;;3.10;2.92;;;;;;;6.02;66.81;93904.91;5114816;27;20419;-33
2022/10/20 03:43:32;;;;;;;6.20;5.70;;;;;;;6.03;66.54;93909.13;5132854;27;20055;-34
2022/10/20 03:46:05;;;;;;;10.23;9.02;;;;;;;5.97;67.23;93905.69;5133026;27;20487;-33
2022/10/20 03:48:31;;;;;;;12.63;8.55;;;;;;;5.72;67.93;93917.75;5132955;27;20076;-33
2022/10/20 03:50:56;;;;;;;2.42;2.28;;;;;;;5.52;68.52;93896.19;5132862;27;20035;-33
2022/10/20 03:53:22;;;;;;;5.45;5.05;;;;;;;5.72;68.29;93909.53;5132845;27;20023;-33
2022/10/20 03:55:47;;;;;;;7.88;7.20;;;;;;;5.60;68.55;93914.34;5132798;27;20023;-34
2022/10/20 03:58:13;;;;;;;6.18;5.75;;;;;;;5.59;68.23;93923.78;5132711;27;20027;-33
2022/10/20 04:00:38;;;;;;;9.68;6.50;;;;;;;5.53;67.31;93911.38;5132746;27;20030;-33
2022/10/20 04:03:03;;;;;;;2.88;2.78;;;;;;;5.42;67.71;93919.63;5131897;27;20027;-33
2022/10/20 04:05:29;;;;;;;3.40;3.15;;;;;;;5.35;67.68;93915.41;5132249;27;20030;-33
2022/10/20 04:07:54;;;;;;;3.42;3.22;;;;;;;5.37;67.65;93913.66;5132840;27;20034;-34
2022/10/20 04:10:20;;;;;;;3.42;3.20;;;;;;;5.44;68.21;93920.63;5132597;27;20429;-33
2022/10/20 04:12:45;;;;;;;6.85;4.60;;;;;;;5.23;68.41;93925.69;5132842;27;20035;-33
2022/10/20 04:15:11;;;;;;;7.82;4.38;;;;;;;5.22;68.07;93926.91;5132771;27;20027;-33
2022/10/20 04:17:37;;;;;;;7.32;3.92;;;;;;;5.11;67.58;93926.22;5132448;27;20470;-33
2022/10/20 04:20:04;;;;;;;3.30;3.05;;;;;;;5.00;68.81;93921.50;5132677;27;20615;-34
2022/10/20 04:22:29;;;;;;;5.82;4.18;;;;;;;5.14;68.24;93927.94;5132620;27;20031;-33
2022/10/20 04:24:55;;;;;;;2.28;2.17;;;;;;;4.99;69.02;93922.00;5131875;27;20509;-33
2022/10/20 04:27:20;;;;;;;3.70;3.13;;;;;;;5.10;68.28;93925.47;5132483;27;20509;-33
2022/10/20 04:29:46;;;;;;;5.50;3.60;;;;;;;5.06;68.32;93919.50;5132101;27;20490;-33
2022/10/20 04:32:12;;;;;;;4.97;4.50;;;;;;;4.95;68.29;93921.50;5132053;27;20479;-33
2022/10/20 04:34:37;;;;;;;8.82;2.60;;;;;;;5.02;68.25;93923.75;5132074;27;20082;-33
2022/10/20 04:37:03;;;;;;;1.73;1.63;;;;;;;5.15;67.37;93921.97;5132317;27;20015;-33
2022/10/20 04:39:29;;;;;;;3.38;2.63;;;;;;;5.03;67.31;93934.19;5132245;27;20026;-33
2022/10/20 04:41:54;;;;;;;8.20;2.85;;;;;;;4.86;68.74;93936.22;5131879;27;20049;-33
2022/10/20 04:44:19;;;;;;;1.65;1.65;;;;;;;4.89;68.36;93934.47;5131681;27;20188;-34
2022/10/20 04:46:45;;;;;;;3.92;3.70;;;;;;;4.98;68.89;93931.47;5131858;27;20491;-33
2022/10/20 04:49:10;;;;;;;6.50;4.20;;;;;;;5.02;68.29;93938.19;5132109;27;20031;-33
2022/10/20 04:51:36;;;;;;;4.53;4.22;;;;;;;4.98;68.29;93931.47;5132010;27;20030;-33
2022/10/20 04:54:01;;;;;;;4.65;3.55;;;;;;;4.82;68.89;93949.41;5131753;27;20023;-33
2022/10/20 04:56:27;;;;;;;1.88;1.58;;;;;;;4.84;68.87;93940.69;5131620;27;20110;-33
2022/10/20 04:58:54;;;;;;;1.85;1.80;;;;;;;4.83;69.12;93950.16;5131919;27;20029;-33
2022/10/20 05:01:23;;;;;;;1.40;1.40;;;;;;;4.69;68.69;93945.69;5131444;27;20037;-33
2022/10/20 05:03:48;;;;;;;5.53;2.30;;;;;;;4.87;68.57;93950.63;5131829;27;20051;-33
2022/10/20 05:06:19;;;;;;;2.65;2.50;;;;;;;5.02;68.72;93945.63;5131507;27;20546;-33
2022/10/20 05:08:46;;;;;;;2.42;2.33;;;;;;;4.97;68.44;93960.81;5131474;27;20030;-33
2022/10/20 05:11:12;;;;;;;10.20;4.32;;;;;;;4.83;69.39;93961.09;5113133;27;20042;-33
2022/10/20 05:13:38;;;;;;;3.92;2.83;;;;;;;4.96;69.98;93953.13;5131681;27;20027;-34
2022/10/20 05:16:04;;;;;;;2.30;2.10;;;;;;;4.88;69.48;93968.53;5131099;27;20456;-34
2022/10/20 05:18:30;;;;;;;2.25;2.15;;;;;;;4.83;68.77;93972.03;5131634;27;20054;-34
2022/10/20 05:20:57;;;;;;;3.13;2.92;;;;;;;4.69;69.13;93973.78;5131607;27;20406;-34
2022/10/20 05:23:22;;;;;;;3.10;2.95;;;;;;;4.72;69.06;93972.75;5131151;27;20027;-33
2022/10/20 05:25:48;;;;;;;2.20;2.10;;;;;;;4.83;68.74;93975.50;5130956;27;20029;-33
2022/10/20 05:28:13;;;;;;;2.47;2.38;;;;;;;4.71;68.87;93978.75;5131168;27;20031;-33
2022/10/20 05:30:39;;;;;;;5.22;4.82;;;;;;;4.81;68.61;93985.47;5131212;28;20042;-33
2022/10/20 05:33:05;;;;;;;2.25;2.15;;;;;;;4.79;69.36;93987.94;5113047;28;20438;-33
2022/10/20 05:35:30;;;;;;;0.75;0.75;;;;;;;4.91;68.79;93992.91;5131242;28;20095;-34
2022/10/20 05:37:55;;;;;;;5.60;3.08;;;;;;;5.05;68.88;93997.38;5131074;28;20031;-34
2022/10/20 05:40:22;;;;;;;1.23;1.15;;;;;;;4.77;68.70;94004.09;5131149;28;20035;-33
2022/10/20 05:42:47;;;;;;;13.60;8.02;;;;;;;4.96;68.78;94007.84;5131176;28;20035;-34
2022/10/20 05:45:13;;;;;;;6.80;6.40;;;;;;;5.02;68.81;94001.13;5131242;28;20058;-33
2022/10/20 05:47:38;;;;;;;2.08;1.98;;;;;;;5.07;69.80;94010.53;5131018;28;20516;-33
2022/10/20 05:50:04;;;;;;;5.90;2.65;;;;;;;5.15;69.27;94017.03;5131224;28;20057;-33
2022/10/20 05:52:30;;;;;;;3.60;3.38;;;;;;;5.39;69.53;94014.50;5131350;28;20099;-34
2022/10/20 05:54:56;;;;;;;1.65;1.55;;;;;;;5.38;70.03;94024.69;5131261;28;20478;-33
2022/10/20 05:57:21;;;;;;;2.22;1.98;;;;;;;5.35;70.54;94035.88;5131071;28;20510;-33
2022/10/20 05:59:47;;;;;;;2.13;2.00;;;;;;;5.41;71.90;94041.38;5130962;28;20476;-33
2022/10/20 06:02:12;;;;;;;2.60;1.90;;;;;;;5.69;71.46;94042.03;5131012;28;20030;-33
2022/10/20 06:04:38;;;;;;;5.78;1.98;;;;;;;5.79;71.08;94052.22;5131147;28;20079;-34
2022/10/20 06:07:08;;;;;;;1.25;1.17;;;;;;;5.96;71.28;94061.16;5130879;28;20486;-33
2022/10/20 06:09:35;;;;;;;2.75;2.58;;;;;;;6.30;71.33;94061.03;5131076;28;20057;-34
2022/10/20 06:12:00;;;;;;;2.05;1.95;;;;;;;6.54;71.07;94056.38;5131191;28;20094;-34
2022/10/20 06:14:26;;;;;;;2.63;2.45;;;;;;;6.78;70.54;94061.22;5130810;28;20406;-34
2022/10/20 06:16:52;;;;;;;0.65;0.65;;;;;;;7.06;69.96;94067.25;5130912;28;20596;-34
2022/10/20 06:19:18;;;;;;;3.92;2.45;;;;;;;7.30;69.02;94070.06;5130698;28;20015;-34
2022/10/20 06:21:43;;;;;;;1.85;1.75;;;;;;;7.47;68.52;94072.69;5130709;28;20019;-34
2022/10/20 06:24:09;;;;;;;4.70;2.55;;;;;;;7.75;67.84;94075.91;5130886;28;20019;-34
2022/10/20 06:26:35;;;;;;;2.10;2.00;;;;;;;7.83;68.04;94081.56;5112383;27;20054;-34
2022/10/20 06:29:02;;;;;;;1.15;1.15;;;;;;;8.08;67.40;94083.78;5134580;27;20072;-34
2022/10/20 06:31:30;;;;;;;3.47;2.95;;;;;;;8.29;66.85;94073.09;5134431;27;20034;-33
2022/10/20 06:33:56;;;;;;;2.45;2.35;;;;;;;8.59;66.44;94079.19;5134368;27;20045;-34
2022/10/20 06:36:23;;;;;;;3.97;3.58;;;;;;;8.77;66.05;94078.44;5134418;27;20019;-34
2022/10/20 06:38:52;;;;;;;5.10;3.88;;;;;;;9.23;64.86;94082.00;5134605;27;20027;-34
2022/10/20 06:41:18;;;;;;;3.58;3.30;;;;;;;9.45;64.27;94074.16;5116035;27;20022;-34
2022/10/20 06:43:44;;;;;;;4.72;4.32;;;;;;;9.23;64.95;94082.78;5134079;27;20088;-34
2022/10/20 06:46:11;;;;;;;4.57;4.00;;;;;;;9.66;65.19;94086.06;5115827;27;20035;-34
2022/10/20 06:48:37;;;;;;;5.20;4.80;;;;;;;9.94;63.38;94066.25;5134094;27;20088;-34
2022/10/20 06:51:05;;;;;;;5.10;4.60;;;;;;;10.52;62.40;94089.00;5134087;27;20019;-34
2022/10/20 06:53:31;;;;;;;4.18;3.88;;;;;;;10.97;61.38;94083.28;5134043;27;20020;-34
2022/10/20 06:56:21;;;;;;;3.25;3.03;;;;;;;11.33;60.61;94091.75;5134012;27;20050;-34
2022/10/20 06:58:48;;;;;;;4.38;3.83;;;;;;;11.36;60.44;94082.38;5133732;27;20383;-34
2022/10/20 07:01:17;;;;;;;2.95;2.78;;;;;;;11.26;61.61;94092.44;5098519;27;20418;-34
2022/10/20 07:03:45;;;;;;;3.17;2.92;;;;;;;11.14;61.58;94091.94;5133785;27;20024;-34
2022/10/20 07:06:16;;;;;;;3.95;3.65;;;;;;;10.99;61.61;94091.03;5133821;27;20035;-34
2022/10/20 07:08:41;;;;;;;4.80;3.47;;;;;;;10.78;61.41;94073.66;5133765;27;20607;-34
2022/10/20 07:11:09;;;;;;;2.83;2.63;;;;;;;10.78;62.07;94084.72;5133968;27;20035;-34
2022/10/20 07:13:36;;;;;;;1.90;1.80;;;;;;;10.72;62.88;94087.56;5133681;27;20601;-34
2022/10/20 07:16:02;;;;;;;3.28;1.83;;;;;;;10.80;62.67;94093.94;5133510;27;20027;-34
2022/10/20 07:18:28;;;;;;;1.98;1.88;;;;;;;10.75;63.67;94088.53;5133830;27;20451;-34
2022/10/20 07:20:59;;;;;;;1.85;1.75;;;;;;;10.75;64.27;94096.81;5133760;27;20023;-34
2022/10/20 07:23:26;;;;;;;1.42;1.42;;;;;;;10.66;64.35;94092.47;5133507;27;20022;-34
2022/10/20 07:25:59;;;;;;;1.75;1.60;;;;;;;10.65;64.68;94088.25;5133079;27;20076;-34
2022/10/20 07:28:24;;;;;;;0.52;0.52;;;;;;;10.63;64.61;94093.56;5133344;27;20030;-34
2022/10/20 07:30:50;;;;;;;2.53;2.30;;;;;;;10.52;65.22;94089.00;5133347;27;20023;-34
2022/10/20 07:33:15;;;;;;;2.40;2.20;;;;;;;10.56;65.66;94089.44;5133527;27;20084;-34
2022/10/20 07:35:41;;;;;;;2.25;2.15;;;;;;;10.53;65.73;94093.25;5115360;27;20030;-34
2022/10/20 07:38:07;;;;;;;1.75;1.50;;;;;;;10.58;65.71;94097.91;5132887;27;20023;-34
2022/10/20 07:40:32;;;;;;;2.20;2.00;;;;;;;10.69;66.11;94094.19;5133503;27;20030;-34
2022/10/20 07:42:57;;;;;;;2.97;2.78;;;;;;;10.68;65.81;94098.19;5132967;27;20043;-34
2022/10/20 07:45:23;;;;;;;1.10;1.10;;;;;;;10.76;66.04;94096.28;5132919;27;20057;-34
2022/10/20 07:47:48;;;;;;;0.50;0.50;;;;;;;10.77;67.09;94086.72;5132994;27;20023;-34
2022/10/20 07:50:14;;;;;;;1.58;1.42;;;;;;;10.85;66.80;94092.34;5132895;27;20092;-34
2022/10/20 07:52:40;;;;;;;1.60;1.60;;;;;;;10.76;66.74;94068.69;5131828;27;20027;-34
2022/10/20 07:55:05;;;;;;;1.27;1.27;;;;;;;10.99;66.77;94085.50;5132911;27;20098;-34
2022/10/20 07:57:31;;;;;;;2.05;1.95;;;;;;;11.10;65.78;94083.22;5132778;27;20019;-34
2022/10/20 07:59:57;;;;;;;2.10;2.00;;;;;;;11.25;65.13;94088.16;5132832;27;20058;-34
2022/10/20 08:02:22;;;;;;;1.13;1.13;;;;;;;11.39;65.69;94098.63;5133009;27;20559;-34
2022/10/20 08:04:49;;;;;;;0.77;0.77;;;;;;;11.46;66.10;94083.38;5132930;27;20468;-34
2022/10/20 08:07:15;;;;;;;0.90;0.90;;;;;;;11.63;64.54;94089.25;5132907;27;20061;-34
2022/10/20 08:09:41;;;;;;;24.38;2.00;;;;;;;11.76;64.08;94089.22;5132429;27;20061;-34
2022/10/20 08:12:06;;;;;;;6.00;1.50;;;;;;;11.86;64.38;94093.00;5132716;27;20030;-34
2022/10/20 08:14:34;;;;;;;3.13;2.00;;;;;;;11.99;63.68;94084.59;5132770;27;20015;-34
2022/10/20 08:17:00;;;;;;;1.20;1.20;;;;;;;12.06;63.08;94091.47;5132742;27;20160;-34
2022/10/20 08:19:26;;;;;;;1.75;1.65;;;;;;;12.21;62.24;94077.00;5132589;27;20022;-33
2022/10/20 08:21:51;;;;;;;0.95;0.95;;;;;;;12.34;62.11;94076.88;5132341;27;20050;-34
2022/10/20 08:24:16;;;;;;;1.35;1.25;;;;;;;12.53;61.35;94083.66;5132157;27;20120;-34
2022/10/20 08:26:42;;;;;;;2.60;1.55;;;;;;;12.79;61.29;94077.84;5132221;27;20031;-34
2022/10/20 08:29:07;;;;;;;4.18;3.88;;;;;;;13.02;60.87;94077.19;5132433;27;20406;-34
2022/10/20 08:31:33;;;;;;;0.70;0.70;;;;;;;13.06;59.98;94049.91;5132410;27;20490;-34
2022/10/20 08:33:58;;;;;;;1.50;1.40;;;;;;;13.42;58.82;94073.44;5132355;27;20026;-34
2022/10/20 08:36:24;;;;;;;1.08;0.52;;;;;;;13.61;58.41;94073.09;5132031;27;20038;-34
2022/10/20 08:38:50;;;;;;;0.90;0.85;;;;;;;13.81;57.78;94068.66;5132268;27;20023;-34
2022/10/20 08:41:20;;;;;;;1.23;1.23;;;;;;;13.94;56.85;94069.22;5132350;27;20106;-34
2022/10/20 08:43:47;;;;;;;1.02;1.00;;;;;;;13.93;56.86;94076.06;5131698;27;20132;-34
2022/10/20 08:46:15;;;;;;;2.67;1.35;;;;;;;14.06;56.59;94077.91;5113470;27;20034;-34
2022/10/20 08:48:41;;;;;;;0.77;0.77;;;;;;;14.23;55.92;94073.25;5113882;27;20023;-34
2022/10/20 08:51:18;;;;;;;0.50;0.50;;;;;;;14.20;55.04;94074.38;5131185;27;20498;-34
2022/10/20 08:53:43;;;;;;;1.15;1.15;;;;;;;14.42;55.91;94056.94;5113608;27;20161;-34
2022/10/20 08:56:12;;;;;;;0.50;0.50;;;;;;;15.79;52.54;94066.13;5131900;27;20102;-34
2022/10/20 08:58:42;;;;;;;0.63;0.63;;;;;;;16.68;48.19;94062.38;5113612;27;20026;-34
2022/10/20 09:01:17;;;;;;;0.50;0.50;;;;;;;17.12;46.66;94056.84;5113328;27;20553;-34
2022/10/20 09:03:42;;;;;;;2.15;1.67;;;;;;;17.47;46.51;94065.88;5131847;27;20031;-34
2022/10/20 09:08:02;;;;;;;0.43;0.43;;;;;;;18.74;43.22;94056.75;5124645;27;142692;-34
2022/10/20 09:10:36;;;;;;;1.92;1.50;;;;;;;19.49;42.19;94049.63;5107202;28;20104;-34
2022/10/20 09:13:06;;;;;;;0.80;0.80;;;;;;;19.58;39.69;94062.88;5108433;28;20019;-34
2022/10/20 09:15:32;;;;;;;0.43;0.43;;;;;;;18.46;40.60;94060.25;5108022;28;20506;-34
2022/10/20 09:18:08;;;;;;;0.57;0.57;;;;;;;17.99;41.46;94062.31;5106849;28;20019;-34
2022/10/20 09:20:38;;;;;;;0.50;0.50;;;;;;;18.25;41.28;94071.97;5108296;28;20047;-34
2022/10/20 09:23:04;;;;;;;1.33;0.90;;;;;;;18.33;41.22;94066.22;5106652;28;20411;-34
2022/10/20 09:25:30;;;;;;;0.75;0.75;;;;;;;18.69;40.76;94072.50;5107499;28;20020;-34
2022/10/20 09:27:55;;;;;;;2.95;1.95;;;;;;;19.17;39.79;94074.56;5107781;28;20524;-34
2022/10/20 09:30:32;;;;;;;1.65;1.55;;;;;;;19.53;38.44;94068.81;5107645;28;20515;-34
2022/10/20 09:32:58;;;;;;;0.57;0.57;;;;;;;19.36;37.96;94072.50;5107743;28;20028;-34
2022/10/20 09:35:34;;;;;;;3.83;0.90;;;;;;;19.77;36.38;94066.97;5107637;28;20020;-34
2022/10/20 09:38:22;;;;;;;0.40;0.40;;;;;;;19.79;36.62;94070.66;5106739;28;20023;-34
2022/10/20 09:41:09;;;;;;;0.68;0.68;;;;;;;19.91;36.55;94070.75;5107663;28;20035;-34
2022/10/20 09:43:37;;;;;;;0.98;0.88;;;;;;;19.06;37.80;94061.91;5086298;28;20035;-34
2022/10/20 09:46:06;;;;;;;0.68;0.65;;;;;;;18.47;38.75;94050.56;5087411;28;20056;-34
2022/10/20 09:48:34;;;;;;;0.30;0.30;;;;;;;18.93;38.53;94056.75;5086219;28;20028;-34
2022/10/20 09:51:00;;;;;;;0.73;0.73;;;;;;;19.38;37.93;94047.44;5087079;28;20120;-34
2022/10/20 09:53:32;;;;;;;1.15;0.80;;;;;;;19.78;35.54;94055.16;5103178;28;20051;-34
2022/10/20 09:55:57;;;;;;;1.17;1.02;;;;;;;19.81;34.60;94056.03;5086938;28;20420;-34
2022/10/20 09:58:25;;;;;;;0.50;0.50;;;;;;;20.09;34.96;94055.94;5102468;28;20107;-34
2022/10/20 10:00:56;;;;;;;0.70;0.70;;;;;;;20.50;32.56;94055.88;5107559;28;20418;-34
2022/10/20 10:03:22;;;;;;;0.30;0.30;;;;;;;20.72;33.22;94051.75;5107030;28;20028;-34
2022/10/20 10:05:57;;;;;;;0.77;0.77;;;;;;;21.04;32.02;94054.63;5107356;28;20100;-35
2022/10/20 10:08:44;;;;;;;0.20;0.20;;;;;;;21.39;32.08;94051.22;5127310;28;20062;-35
2022/10/20 10:11:18;;;;;;;0.63;0.63;;;;;;;21.57;30.61;94055.19;5109232;28;20483;-35
2022/10/20 10:13:51;;;;;;;0.65;0.65;;;;;;;20.47;32.07;94048.66;5127421;28;20034;-34
2022/10/20 10:16:20;;;;;;;0.50;0.50;;;;;;;19.37;33.62;94045.97;5127676;28;20011;-34
2022/10/20 10:18:59;;;;;;;;;;;;;;;19.68;34.94;94043.25;5117746;28;20110;-34
2022/10/20 10:21:25;;;;;;;0.25;0.25;;;;;;;20.40;32.93;94041.91;5095875;28;19907;-34
2022/10/20 10:23:59;;;;;;;2.22;0.63;;;;;;;21.12;31.21;94040.34;5113644;28;20600;-34
2022/10/20 10:26:36;;;;;;;1.05;1.05;;;;;;;21.78;31.11;94046.66;5113402;28;20036;-34
2022/10/20 10:29:02;;;;;;;0.30;0.30;;;;;;;21.97;30.23;94042.91;5113765;28;20032;-34
2022/10/20 10:31:27;;;;;;;0.52;0.52;;;;;;;22.55;29.86;94038.72;5113636;28;20031;-34
2022/10/20 10:34:05;;;;;;;2.25;0.90;;;;;;;22.82;29.04;94031.84;5113688;28;20400;-34
2022/10/20 10:36:35;;;;;;;0.47;0.47;;;;;;;21.55;29.66;94033.28;5095115;28;20400;-34
2022/10/20 10:39:03;;;;;;;0.63;0.63;;;;;;;20.81;31.91;94037.63;5113552;28;20027;-34
2022/10/20 10:41:37;;;;;;;0.43;0.43;;;;;;;21.04;32.02;94029.34;5113340;28;20038;-34
2022/10/20 10:44:11;;;;;;;0.47;0.47;;;;;;;20.86;31.56;94036.56;5113465;28;20039;-34
2022/10/20 10:46:42;;;;;;;0.35;0.35;;;;;;;21.08;32.63;94031.69;5095001;28;20031;-34
2022/10/20 10:49:32;;;;;;;0.68;0.68;;;;;;;21.98;30.43;94027.53;5113056;28;20518;-34
2022/10/20 10:52:19;;;;;;;0.77;0.77;;;;;;;22.61;28.79;94018.66;5113310;28;20032;-34
2022/10/20 10:54:53;;;;;;;2.17;1.35;;;;;;;22.97;27.87;94017.25;5113308;28;20028;-34
2022/10/20 10:57:38;;;;;;;0.95;0.32;;;;;;;23.08;27.33;94010.84;5113076;28;20020;-35
2022/10/20 11:00:12;;;;;;;1.95;1.65;;;;;;;22.52;27.50;94019.53;5094747;28;20031;-34
2022/10/20 11:02:43;;;;;;;0.47;0.47;;;;;;;23.30;27.74;93998.00;5094690;28;20023;-35
2022/10/20 11:05:11;;;;;;;1.13;1.10;;;;;;;23.42;26.94;94001.50;5112752;28;20028;-34
2022/10/20 11:07:52;;;;;;;6.32;1.40;;;;;;;23.21;27.31;94001.72;5112484;28;20496;-34
2022/10/20 11:10:39;;;;;;;1.08;0.88;;;;;;;23.73;26.69;93992.63;5112915;28;20050;-34
2022/10/20 11:13:19;;;;;;;1.75;1.58;;;;;;;23.46;26.89;93989.72;5112922;28;20406;-34
2022/10/20 11:15:54;;;;;;;2.05;1.65;;;;;;;22.81;27.55;93999.41;5112873;28;20028;-35
2022/10/20 11:18:38;;;;;;;0.30;0.30;;;;;;;22.47;27.81;93998.88;5112446;28;20111;-35
2022/10/20 11:21:06;;;;;;;1.63;1.52;;;;;;;21.96;28.59;93983.13;5112767;28;20153;-35
2022/10/20 11:23:59;;;;;;;0.73;0.73;;;;;;;21.78;29.61;93982.75;5112408;28;20498;-34
2022/10/20 11:26:36;;;;;;;1.02;0.95;;;;;;;22.42;29.82;93985.16;5094026;28;20059;-34
2022/10/20 11:29:07;;;;;;;1.08;0.47;;;;;;;23.31;28.29;93988.19;5093682;28;20557;-35
2022/10/20 11:31:48;;;;;;;0.98;0.98;;;;;;;23.74;27.12;93980.72;5093684;28;20083;-34
2022/10/20 11:34:14;;;;;;;0.25;0.25;;;;;;;22.63;28.41;93987.13;5112315;28;20062;-35
2022/10/20 11:36:44;;;;;;;0.50;0.50;;;;;;;21.32;30.14;93977.06;5112385;28;20469;-34
2022/10/20 11:39:32;;;;;;;0.85;0.60;;;;;;;21.13;30.79;93985.69;5093807;28;20065;-34
2022/10/20 11:42:15;;;;;;;1.15;0.60;;;;;;;20.99;31.22;93977.06;5112409;28;20481;-35
2022/10/20 11:44:43;;;;;;;0.95;0.95;;;;;;;21.69;30.29;93972.34;5094148;28;20038;-34
2022/10/20 11:47:18;;;;;;;0.47;0.47;;;;;;;21.73;29.84;93972.59;5094006;28;20028;-34
2022/10/20 11:49:44;;;;;;;0.43;0.43;;;;;;;21.88;29.19;93969.31;5112024;28;20113;-34